• Join FlightAware (Why Join?)
  • Login
  • US Flag 
05:46AM EDT


 

Airport Tracker/Info


-or-


 

Live Flight TrackerFlight Track Log ✈ SWA1533 ✈ 27-Apr-2013 ✈ KLAX - KOAK

Flight Track Log - Related Links

Times and Time Zones

All times are in EDT time to prevent confusion due to time zone crossing. See the SWA1533 flight status page for this flight to view local times or setup timezone preferences in your user account.

Time Position Orientation Groundspeed Altitude Reporting Facility
EDT Latitude Longitude Course Direction KTS MPH feet Rate Location/Type
12:46PM 33.9500 -118.5000 North 222 255 2,400  Level Southern California TRACON
12:47PM 33.9333 -118.5833 256° West 257 296 4,600 2,520 Climbing Southern California TRACON
12:48PM 33.9667 -118.6667 296° West 279 321 7,500 2,160 Climbing Southern California TRACON
12:49PM 34.0333 -118.7167 328° Northwest 293 337 9,000 1,140 Climbing Southern California TRACON
12:49PM 34.0469 -118.7053 35° Northeast 294 338 9,000  Level Los Angeles Center
12:50PM 34.1203 -118.6622 26° Northeast 286 329 9,000 540 Level Los Angeles Center
12:51PM 34.2474 -118.6000 North  Level FlightAware Approximate
12:51PM 34.2006 -118.6742 353° North 289 333 10,200  Level Los Angeles Center
12:52PM 34.2839 -118.6878 352° North 300 345 13,300 1,800 Climbing Los Angeles Center
12:53PM 34.3650 -118.7011 352° North 295 339 14,000 360 Climbing Los Angeles Center
12:54PM 34.4483 -118.7131 353° North 297 342 14,100 1,500 Climbing Los Angeles Center
12:55PM 34.5461 -118.7303 352° North 296 341 17,200 1,980 Climbing Los Angeles Center
12:56PM 34.6303 -118.7742 337° Northwest 336 387 18,200 1,200 Climbing Los Angeles Center
12:57PM 34.7239 -118.8222 337° Northwest 361 415 19,800 1,860 Climbing Los Angeles Center
12:58PM 34.8208 -118.8767 335° Northwest 384 442 22,100 1,980 Climbing Los Angeles Center
12:59PM 34.9122 -118.9683 321° Northwest 386 444 24,000 1,620 Climbing Los Angeles Center
01:00PM 34.9997 -119.0536 321° Northwest 402 463 25,500 1,380 Climbing Los Angeles Center
01:01PM 35.0897 -119.1408 322° Northwest 413 475 26,900 1,260 Climbing Los Angeles Center
01:02PM 35.1814 -119.2297 322° Northwest 422 486 28,200 1,320 Climbing Los Angeles Center
01:03PM 35.2717 -119.3192 321° Northwest 419 482 29,700 1,440 Climbing Los Angeles Center
01:04PM 35.3819 -119.4278 321° Northwest 423 487 31,200 1,380 Climbing Los Angeles Center
01:05PM 35.4725 -119.5175 321° Northwest 422 486 32,600 1,200 Climbing Los Angeles Center
01:06PM 35.5619 -119.6067 321° Northwest 419 482 33,800 660 Climbing Los Angeles Center
01:07PM 35.6517 -119.6964 321° Northwest 418 481 34,000 60 Climbing Los Angeles Center
01:08PM 35.7411 -119.7861 321° Northwest 418 481 34,000  Level Los Angeles Center
01:09PM 35.8464 -119.8925 321° Northwest 412 474 34,000  Level Los Angeles Center
01:11PM 35.9347 -119.9825 320° Northwest 413 475 34,000 -180 Level Los Angeles Center
01:12PM 36.0247 -120.0733 321° Northwest 418 481 33,700 -660 Descending Los Angeles Center
01:13PM 36.1153 -120.1650 321° Northwest 421 484 32,700 -1,080 Descending Los Angeles Center
01:14PM 36.2217 -120.2697 322° Northwest 418 481 31,500 -1,080 Descending Oakland Center
01:15PM 36.3094 -120.3606 320° Northwest 414 476 30,500 -1,020 Descending Oakland Center
01:16PM 36.3961 -120.4494 320° Northwest 406 467 29,500 -1,020 Descending Oakland Center
01:17PM 36.4822 -120.5347 321° Northwest 397 457 28,500 -1,020 Descending Oakland Center
01:18PM 36.5653 -120.6256 319° Northwest 398 458 27,500 -1,020 Descending Oakland Center
01:19PM 36.6500 -120.7106 321° Northwest 392 451 26,500 -780 Descending Oakland Center
01:20PM 36.7306 -120.7983 319° Northwest 385 443 26,000 -1,200 Descending Oakland Center
01:21PM 36.8214 -120.8933 320° Northwest 374 430 24,100 -2,160 Descending Oakland Center
01:22PM 36.8964 -120.9828 316° Northwest 372 428 21,600 -2,460 Descending Oakland Center
01:23PM 36.9725 -121.0703 317° Northwest 369 425 19,100 -2,160 Descending Oakland Center
01:24PM 37.0411 -121.1486 318° Northwest 353 406 17,300 -2,040 Descending Oakland Center
01:25PM 37.1139 -121.2356 316° Northwest 345 397 15,000 -2,160 Descending Oakland Center
01:26PM 37.1831 -121.3139 318° Northwest 336 387 12,900 -1,860 Descending Oakland Center
01:27PM 37.2486 -121.3911 317° Northwest 324 373 11,300 -1,440 Descending Oakland Center
01:28PM 37.3175 -121.4706 317° Northwest 278 320 10,000 -1,140 Descending Oakland Center
01:29PM 37.3633 -121.5256 316° Northwest 248 285 9,000 -1,020 Descending Oakland Center
01:29PM 37.4000 -121.5667 318° Northwest 244 281 8,500 -1,080 Descending Northern Cal TRACON
01:30PM 37.4500 -121.6167 322° Northwest 251 289 7,500 -780 Descending Northern Cal TRACON
01:31PM 37.4833 -121.6833 302° West 239 275 7,000 -300 Descending Northern Cal TRACON
01:32PM 37.5333 -121.7333 322° Northwest 220 253 7,000 -300 Level Northern Cal TRACON
01:33PM 37.5500 -121.8000 288° West 205 236 6,400 -900 Descending Northern Cal TRACON
01:34PM 37.5500 -121.8667 270° West 200 230 5,400 -960 Descending Northern Cal TRACON
01:35PM 37.5500 -121.9333 270° West 198 228 4,600 -660 Descending Northern Cal TRACON
01:36PM 37.5500 -122.0000 270° West 198 228 4,100 -600 Descending Northern Cal TRACON
01:37PM 37.5833 -122.0500 310° West 192 221 3,400 -840 Descending Northern Cal TRACON
01:38PM 37.6167 -122.1000 310° West 171 197 2,500 -960 Descending Northern Cal TRACON
01:39PM 37.6444 -122.1297 320° Northwest 179 206 1,700 -900 Descending Oakland Center
01:40PM 37.6719 -122.1706 310° West 166 191 900 -840 Descending Oakland Center
01:41PM 37.6961 -122.2061 311° West 150 173 100 -780 Descending Oakland Center
01:43PM 37.7167 -122.2167 270° West  Level FlightAware Approximate
01:50PM 37.7213 -122.2207 270° West  Level Estimated
01:51PM 37.7167 -122.2167 270° West  Level FlightAware Approximate